< < Back
Terminal Aerodrome Forecast


Current Version              Previous Versions:   1  2  3  4  5  6  7  8  9  

Terminal Aerodrome Forecast

228
FTUS42 KILM 311120
TAFILM
TAF
KILM 311120Z 3112/0112 VRB05KT P6SM SCT250
     FM311600 21011G20KT P6SM FEW050 SCT250
     FM010000 23008KT P6SM SCT100 BKN250=



Latest METAR

632
SAUS70 KWBC 311800 RRD
MTRILM
METAR KILM 311753Z 13009KT 10SM CLR 21/01 A2996 RMK AO2 SLP144 T02110006
10222 20078 58033


USA.gov is the U.S. government's official web portal to all federal, state and local government web resources and services.